Meteo Giornale » Osservazioni meteo Stati Uniti (USA) » Avalon Catalina

ore: 13:51 - Osservazioni Meteo Avalon Catalina
Lat. 33° 24' N Lon. 118° 24' W Alt. 488 metri s.l.m.

sereno

22 °C

Sereno

Temp. 24 Ore

17 °C

25 °C

Ovest/Sud-Ovest

14.8 Km/h

Dew point 16 °C

Umidità 68 %

Visibilità  10 Km

Il sole sorge alle ore 06:27

Il sole tramonta alle ore 19:20

Data e Ora Cielo e Fenomeni T °C DP °C Um. % Pres. hPa Vis. km Vento km/h
Oggi h: 13:51 sereno Sereno 22 16 68 1016 10 O/SO 14.8
Oggi h: 12:51 sereno Sereno 22 16 68 1016 14 O/SO 13
Oggi h: 11:51 sereno Sereno 22 16 68 1016 14 O/SO 13
Oggi h: 10:51 sereno Sereno 22 16 68 1016 13 N 9.3
Oggi h: 09:51 sereno Sereno 21 16 73 1015 13 N 5.5
Oggi h: 08:51 sereno Sereno 20 17 82 1015 13 S/SE 7.4
Oggi h: 08:19 nuvoloso Nuvoloso 18 17 93 1015 11 S/SE 7.4
Oggi h: 07:51 foschia Foschia 17 17 100 1015 6 N 5.5
Oggi h: 07:48 foschia Foschia 17 17 100 1015 3 N 5.5
Oggi h: 07:45 foschia Foschia 17 17 100 1015 2 E/SE 9.3
Oggi h: 07:29 nebbia Nebbia 17 17 100 1014 2 S/SE 9.3
Oggi h: 07:14 foschia Foschia 17 17 100 1014 5 S/SE 7.4
Oggi h: 06:51 foschia Foschia 17 17 100 1014 2 S 7.4
Oggi h: 06:47 foschia Foschia 17 17 100 1014 2 S/SE 7.4
Oggi h: 06:11 nebbia Nebbia 17 17 100 1014 2 S/SE 7.4
Oggi h: 05:58 nebbia Nebbia 17 17 100 1014 2 S/SE 9.3
Oggi h: 05:51 nebbia Nebbia 17 17 100 1014 2 S/SE 7.4
Oggi h: 05:44 nebbia Nebbia 17 17 100 1014 2 S/SE 9.3
Oggi h: 05:34 foschia Foschia 17 17 100 1014 2 SE 7.4
Oggi h: 05:01 nebbia Nebbia 17 17 100 1014 2 S/SE 7.4
Oggi h: 04:51 nebbia Nebbia 17 17 100 1014 2 N 5.5
Oggi h: 04:48 foschia Foschia 17 17 100 1014 5 S/SE 7.4
Oggi h: 04:39 foschia Foschia 17 17 100 1014 2 S/SE 9.3
Oggi h: 04:29 foschia Foschia 17 17 100 1014 5 S/SE 7.4
Oggi h: 04:22 foschia Foschia 17 17 100 1014 5 S/SE 7.4
Oggi h: 04:08 foschia Foschia 17 17 100 1014 5 S/SE 9.3
Oggi h: 03:51 foschia Foschia 17 17 100 1014 3 S/SE 9.3
Oggi h: 03:34 foschia Foschia 18 17 93 1014 3 SE 7.4
Oggi h: 03:21 foschia Foschia 18 17 93 1014 6 SE 7.4
Oggi h: 03:12 foschia Foschia 18 17 93 1014 10 SE 7.4
Oggi h: 02:51 sereno Sereno 17 14 82 1014 14 N 0
Oggi h: 01:51 sereno Sereno 18 16 88 1014 14 N 5.5
Oggi h: 00:51 sereno Sereno 19 13 68 1014 10 N 0
Ieri h: 23:51 sereno Sereno 21 10 49 1014 10 N 0
Ieri h: 22:51 sereno Sereno 21 11 52 1014 10 N 0
Ieri h: 21:51 foschia Foschia 17 16 93 1014 10 N 0
Ieri h: 20:51 foschia Foschia 18 17 93 1014 8 N 5.5
Ieri h: 19:51 foschia Foschia 18 16 88 1012 10 N 0
Ieri h: 18:51 foschia Foschia 19 17 88 1012 10 O/SO 14.8
Ieri h: 17:51 foschia Foschia 21 17 77 1012 10 O/SO 18.5
Ieri h: 16:51 sereno Sereno 25 14 50 1013 10 O/SO 11.1
Ieri h: 15:51 sereno Sereno 25 16 57 1013 14 O 13
Ieri h: 14:51 sereno Sereno 25 17 61 1014 13 O/SO 13